Eielson Air Force Base
PAEI : now visible

Airfield :











YOU CAN JOIN US ON...

 
LOGIN :

Register | Disclaimer

   EN    FR    IT 

 









Legend :    VFR   Marginal VFR   IFR   Intensive IFR   Very Intensive IFR
Visi :
Ceiling :
>= 8 km
>= 3000ft
5 to 8 km
1000 to 3000 ft
1500m to 5 km
500 to 1000 ft
800 to 1500m
200 to 500 ft
< 800m
< 200 ft
Symbols :   Thunderstorms  Fog  Heavy snow  Heavy precipitations  Wind > 20 kt






- Airport Elevation : 547 ft
- IATA code : EIL


PAEI - Eielson Air Force Base

CURRENT METAR :
  • 272356Z 00000KT 4SM BR SCT003 BKN050 M32/M37 A2975 RMK AO2A SLP101 4/019 T13231368 11323 21379 57009 $

EXPIRED METARs :
  • 272256Z 00000KT 4SM BR SCT002 BKN050 M33/M38 A2975 RMK AO2A SLP101 $
  • 272239Z 00000KT 2SM BR BKN005 BKN050 M33/M38 A2976 RMK AO2A SLP103 $
  • 272228Z 00000KT 2 1/2SM BR OBKN008 BKN050 M34/M38 A2976 RMK AO2A SLP103 $
  • 272206Z 00000KT 2SM BR SCT005 BKN050 M35/M40 A2976 RMK AO2A SLP104 $
  • 272156Z 00000KT 4SM BR SCT005 BKN050 M35/M39 A2977 RMK AO2A SLP107 T13481395 $

TAF TAF PAEI
Valid from the 27 at 22:00 until the 29 at 04:00 UTC


272200Z 2722/2904 VRB05KT 6000 BR SCT005 BKN050 620505 QNH2969INS
TEMPO 2722/2802 3200 BR BKN005 620059
BECMG 2802/2803 VRB04KT 9999 NSW FEW030 SCT070 QNH2958INS
BECMG 2805/2806 VRB03KT 9999 VCSH FEW040 BKN100 QNH2954INS
TEMPO 2816/2820 8000 -SN BR BKN040 620406 TXM30/2818Z TNM38/2801Z



MET'MAP, your aeronautical weather chart ! - Copyright ORBIFLY December 2007 - Disclaimer

ORBIFLY MET'MAP TEAM :

Programming & Development : Alexandra Zaïnal
Concept & original design : Baudouin d'Aumeries
Assistance for programming : Marc-Olivier Méhu
Technical & hardware support : Manuel Goepfert

Contact : metmap@orbifly.com




SOURCES & CREDITS :

   NOAA       Earth
Advisory